createdAt,value
2022-12-03T00:01:21.702Z,1.44
2022-12-03T00:06:36.577Z,1.69
2022-12-03T00:11:52.705Z,1.56
2022-12-03T00:17:13.050Z,1.75
2022-12-03T00:22:23.112Z,1.5
2022-12-03T00:27:39.270Z,1.56
2022-12-03T00:32:54.132Z,1.56
2022-12-03T00:38:09.028Z,1.56
2022-12-03T00:43:25.228Z,1.56
2022-12-03T00:48:41.419Z,1.5
2022-12-03T00:53:57.513Z,1.56
2022-12-03T00:59:12.416Z,1.56
2022-12-03T01:04:27.997Z,1.38
2022-12-03T01:09:44.063Z,1.62
2022-12-03T01:15:00.260Z,1.62
2022-12-03T01:20:16.397Z,1.5
2022-12-03T01:25:31.912Z,1.5
2022-12-03T01:30:48.102Z,1.56
2022-12-03T01:36:04.268Z,1.5
2022-12-03T01:41:22.937Z,1.38
2022-12-03T01:46:39.203Z,1.5
2022-12-03T01:51:55.268Z,1.19
2022-12-03T01:57:10.788Z,1.38
2022-12-03T02:02:25.666Z,1.5
2022-12-03T02:07:41.860Z,1.44
2022-12-03T02:12:57.993Z,1.5
2022-12-03T02:18:12.921Z,1.56
2022-12-03T02:23:29.023Z,1.56
2022-12-03T02:24:19.032Z,1.56
2022-12-03T02:28:45.832Z,1.19
2022-12-03T02:29:35.835Z,1.19
2022-12-03T02:34:00.788Z,1.44
2022-12-03T02:34:50.963Z,1.44
2022-12-03T02:39:17.511Z,1.12
2022-12-03T02:40:07.508Z,1.12
2022-12-03T02:44:32.396Z,1.5
2022-12-03T02:45:22.395Z,1.5
2022-12-03T02:49:49.206Z,1.38
2022-12-03T02:50:39.199Z,1.38
2022-12-03T02:55:04.734Z,1.25
2022-12-03T02:55:54.738Z,1.25
2022-12-03T03:00:19.584Z,1.25
2022-12-03T03:01:09.645Z,1.25
2022-12-03T03:05:37.661Z,1.31
2022-12-03T03:06:27.665Z,1.31
2022-12-03T03:10:53.830Z,1.25
2022-12-03T03:11:43.831Z,1.25
2022-12-03T03:16:08.741Z,1.19
2022-12-03T03:16:58.707Z,1.19
2022-12-03T03:21:24.224Z,1.19
2022-12-03T03:22:14.229Z,1.19
2022-12-03T03:26:38.468Z,1.19
2022-12-03T03:27:28.464Z,1.19
2022-12-03T03:31:54.725Z,1.12
2022-12-03T03:32:44.639Z,1.12
2022-12-03T03:37:11.424Z,1.19
2022-12-03T03:38:01.424Z,1.19
2022-12-03T03:42:26.979Z,1.12
2022-12-03T03:43:16.980Z,1.12
2022-12-03T03:47:41.836Z,1
2022-12-03T03:48:31.838Z,1
2022-12-03T03:52:56.743Z,1.06
2022-12-03T03:53:46.743Z,1.06
2022-12-03T03:58:12.252Z,1
2022-12-03T03:59:02.245Z,1
2022-12-03T04:03:28.444Z,1.19
2022-12-03T04:04:18.496Z,1.19
2022-12-03T04:07:54.644Z,1.06
2022-12-03T04:08:44.586Z,1.06
2022-12-03T04:12:58.382Z,1
2022-12-03T04:13:09.423Z,1
2022-12-03T04:18:12.611Z,1.06
2022-12-03T04:18:24.466Z,1.06
2022-12-03T04:23:31.234Z,0.69
2022-12-03T04:23:39.193Z,0.69
2022-12-03T04:28:43.653Z,0.81
2022-12-03T04:28:55.346Z,0.81
2022-12-03T04:33:59.170Z,0.94
2022-12-03T04:34:29.824Z,0.94
2022-12-03T04:39:15.982Z,0.88
2022-12-03T04:39:46.558Z,0.88
2022-12-03T04:44:31.485Z,1.06
2022-12-03T04:45:04.149Z,1.06
2022-12-03T04:49:47.011Z,1
2022-12-03T04:50:20.284Z,1
2022-12-03T04:55:02.539Z,1.25
2022-12-03T04:57:36.360Z,1.25
2022-12-03T05:02:44.737Z,1.19
2022-12-03T05:03:34.716Z,1.19
2022-12-03T05:07:59.692Z,1.12
2022-12-03T05:08:06.373Z,1.12
2022-12-03T05:13:15.007Z,0.62
2022-12-03T05:26:58.683Z,0.75
2022-12-03T05:35:25.005Z,1
2022-12-03T05:42:27.968Z,0.75
2022-12-03T05:47:39.232Z,0.94
2022-12-03T05:52:56.200Z,0.88
2022-12-03T05:58:12.920Z,0.88
2022-12-03T06:03:29.135Z,0.88
2022-12-03T06:08:46.480Z,0.94
2022-12-03T06:19:20.838Z,0.81
2022-12-03T06:29:54.280Z,0.94
2022-12-03T06:35:10.765Z,0.75
2022-12-03T06:40:28.044Z,0.69
2022-12-03T06:45:47.800Z,0.56
2022-12-03T06:51:01.482Z,0.5
2022-12-03T06:55:29.079Z,0.56
2022-12-03T06:59:56.636Z,0.81
2022-12-03T07:05:12.683Z,0.69
2022-12-03T07:10:30.607Z,0.5
2022-12-03T07:15:49.518Z,0.75
2022-12-03T07:21:06.122Z,0.69
2022-12-03T07:25:34.222Z,0.62
2022-12-03T07:30:42.686Z,0.56
2022-12-03T07:35:51.823Z,0.69
2022-12-03T07:41:01.589Z,0.38
2022-12-03T07:46:11.468Z,0.56
2022-12-03T07:51:20.469Z,0.56
2022-12-03T07:56:28.934Z,0.56
2022-12-03T08:01:39.565Z,0.5
2022-12-03T08:06:49.094Z,0.5
2022-12-03T08:11:57.567Z,0.81
2022-12-03T08:17:07.970Z,0.69
2022-12-03T08:22:17.089Z,0.69
2022-12-03T08:27:28.125Z,0.44
2022-12-03T08:32:37.887Z,0.88
2022-12-03T08:37:47.016Z,0.56
2022-12-03T08:42:57.417Z,0.75
2022-12-03T08:48:05.905Z,1
2022-12-03T08:53:14.390Z,0.69
2022-12-03T08:58:22.858Z,0.81
2022-12-03T09:03:31.314Z,0.62
2022-12-03T09:08:39.825Z,1.06
2022-12-03T09:13:50.209Z,0.88
2022-12-03T09:19:49.861Z,0.69
2022-12-03T09:24:51.071Z,1
2022-12-03T09:30:07.594Z,0.81
2022-12-03T09:34:32.447Z,1.25
2022-12-03T09:39:42.212Z,1
2022-12-03T09:44:52.014Z,1.06
2022-12-03T09:50:00.450Z,1.25
2022-12-03T09:55:09.581Z,1.12
2022-12-03T10:00:17.434Z,1.25
2022-12-03T10:05:25.257Z,1.25
2022-12-03T10:10:34.365Z,1.12
2022-12-03T10:15:43.499Z,1.25
2022-12-03T10:20:52.032Z,1.25
2022-12-03T10:26:03.047Z,1.31
2022-12-03T10:31:17.694Z,1.38
2022-12-03T10:36:34.927Z,1.44
2022-12-03T10:41:52.856Z,1.19
2022-12-03T10:47:09.953Z,1.5
2022-12-03T10:52:27.871Z,1.31
2022-12-03T10:56:58.365Z,1.19
2022-12-03T11:02:07.660Z,1.25
2022-12-03T11:07:15.982Z,1.44
2022-12-03T11:12:25.090Z,1.44
2022-12-03T11:17:33.570Z,1.44
2022-12-03T11:22:42.048Z,1.44
2022-12-03T11:27:51.806Z,1.44
2022-12-03T11:33:02.227Z,1.44
2022-12-03T11:38:10.684Z,1.38
2022-12-03T11:43:19.167Z,1.44
2022-12-03T11:48:29.037Z,1.06
2022-12-03T11:53:37.405Z,1.25
2022-12-03T11:58:45.890Z,1.12
2022-12-03T12:03:54.482Z,1.5
2022-12-03T12:09:02.868Z,1.5
2022-12-03T12:14:11.338Z,1.62
2022-12-03T12:19:20.445Z,1.5
2022-12-03T12:24:30.227Z,1.56
2022-12-03T12:27:34.596Z,1.5
2022-12-03T12:32:51.499Z,1.44
2022-12-03T12:38:08.356Z,1.69
2022-12-03T12:43:25.227Z,1.38
2022-12-03T12:48:41.842Z,1.38
2022-12-03T12:53:07.968Z,1.38
2022-12-03T12:58:16.446Z,1.25
2022-12-03T13:03:26.205Z,1.25
2022-12-03T13:08:35.326Z,1.31
2022-12-03T13:13:44.715Z,1.31
2022-12-03T13:18:53.570Z,1.19
2022-12-03T13:24:03.341Z,1.31
2022-12-03T13:29:13.086Z,1.06
2022-12-03T13:34:23.498Z,1.19
2022-12-03T13:39:31.971Z,1
2022-12-03T13:44:41.086Z,1.06
2022-12-03T13:49:52.202Z,1.19
2022-12-03T13:55:01.906Z,1.19
2022-12-03T14:00:10.457Z,1.38
2022-12-03T14:05:19.486Z,1.25
2022-12-03T14:10:29.891Z,1.31
2022-12-03T14:15:38.368Z,1
2022-12-03T14:20:46.850Z,1.06
2022-12-03T14:25:56.608Z,1.25
2022-12-03T14:31:05.087Z,0.94
2022-12-03T14:36:15.502Z,1.25
2022-12-03T14:41:25.250Z,1.19
2022-12-03T14:46:41.992Z,1
2022-12-03T14:51:57.490Z,0.88
2022-12-03T15:02:33.581Z,1
2022-12-03T15:13:07.553Z,1.19
2022-12-03T15:23:41.839Z,1
2022-12-03T15:28:58.762Z,1.06
2022-12-03T15:34:20.578Z,1
2022-12-03T15:39:32.360Z,1.25
2022-12-03T15:44:49.004Z,1.12
2022-12-03T15:50:05.503Z,0.88
2022-12-03T15:54:32.850Z,1
2022-12-03T15:59:01.963Z,1
2022-12-03T16:04:18.908Z,1.06
2022-12-03T16:09:35.719Z,0.94
2022-12-03T16:14:53.164Z,1
2022-12-03T16:19:19.819Z,0.88
2022-12-03T16:24:30.221Z,0.94
2022-12-03T16:29:38.685Z,1
2022-12-03T16:34:48.449Z,1
2022-12-03T16:39:57.763Z,1
2022-12-03T16:45:06.707Z,1
2022-12-03T16:50:27.521Z,0.94
2022-12-03T16:55:24.292Z,1
2022-12-03T17:00:33.421Z,0.88
2022-12-03T17:05:43.168Z,1.19
2022-12-03T17:10:53.718Z,0.94
2022-12-03T17:16:04.759Z,1
2022-12-03T17:21:13.727Z,1.06
2022-12-03T17:26:22.845Z,0.94
2022-12-03T17:31:42.095Z,1.06
2022-12-03T17:36:44.304Z,0.94
2022-12-03T17:41:52.776Z,0.75
2022-12-03T17:47:02.627Z,0.69
2022-12-03T17:52:11.643Z,0.75
2022-12-03T17:57:22.184Z,0.88
2022-12-03T18:02:29.903Z,0.75
2022-12-03T18:07:39.681Z,0.94
2022-12-03T18:12:48.768Z,0.88
2022-12-03T18:17:57.886Z,0.88
2022-12-03T18:23:11.744Z,0.88
2022-12-03T18:33:43.536Z,0.62
2022-12-03T18:44:15.139Z,0.88
2022-12-03T18:54:49.353Z,0.75
2022-12-03T19:05:33.603Z,0.69
2022-12-03T19:21:05.671Z,0.69
2022-12-03T19:36:52.233Z,0.88
2022-12-03T19:42:07.763Z,0.94
2022-12-03T19:46:35.189Z,0.69
2022-12-03T19:51:34.439Z,0.69
2022-12-03T19:56:14.344Z,0.69
2022-12-03T20:01:30.507Z,0.81
2022-12-03T20:06:45.344Z,0.5
2022-12-03T20:12:05.019Z,0.62
2022-12-03T20:16:30.363Z,0.62
2022-12-03T20:21:39.328Z,0.62
2022-12-03T20:26:47.824Z,0.5
2022-12-03T20:31:56.966Z,0.69
2022-12-03T20:37:05.409Z,0.75
2022-12-03T20:42:13.893Z,0.94
2022-12-03T20:47:23.652Z,0.75
2022-12-03T20:52:32.128Z,0.88
2022-12-03T20:57:41.901Z,0.81
2022-12-03T21:02:52.342Z,0.88
2022-12-03T21:08:00.951Z,0.88
2022-12-03T21:13:10.528Z,0.69
2022-12-03T21:18:20.944Z,0.75
2022-12-03T21:23:30.684Z,0.75
2022-12-03T21:28:41.087Z,0.75
2022-12-03T21:33:51.489Z,0.88
2022-12-03T21:39:00.609Z,0.88
2022-12-03T21:44:10.366Z,0.75
2022-12-03T21:49:18.862Z,0.5
2022-12-03T21:54:27.990Z,0.69
2022-12-03T21:59:36.456Z,0.94
2022-12-03T22:04:44.926Z,0.75
2022-12-03T22:09:54.572Z,0.62
2022-12-03T22:15:02.530Z,0.56
2022-12-03T22:20:11.007Z,0.69
2022-12-03T22:25:20.767Z,0.62
2022-12-03T22:30:30.628Z,0.69
2022-12-03T22:35:41.824Z,0.5
2022-12-03T22:40:58.016Z,0.38
2022-12-03T22:46:14.270Z,0.62
2022-12-03T22:51:31.851Z,0.75
2022-12-03T22:56:43.913Z,0.81
2022-12-03T23:01:58.791Z,0.81
2022-12-03T23:07:14.311Z,0.38
2022-12-03T23:11:42.222Z,0.69
2022-12-03T23:16:51.984Z,0.56
2022-12-03T23:21:59.821Z,0.75
2022-12-03T23:27:08.916Z,0.5
2022-12-03T23:32:18.063Z,0.62
2022-12-03T23:37:27.168Z,1
2022-12-03T23:42:36.924Z,0.69
2022-12-03T23:47:46.695Z,0.69
2022-12-03T23:52:59.010Z,0.56
2022-12-03T23:58:13.341Z,0.62
